createdAt,value
2023-03-11T00:00:32.467Z,4.10
2023-03-11T00:03:01.641Z,3.95
2023-03-11T00:05:35.164Z,3.72
2023-03-11T00:08:04.345Z,3.72
2023-03-11T00:10:38.998Z,4.25
2023-03-11T00:13:08.566Z,3.50
2023-03-11T00:15:36.630Z,4.05
2023-03-11T00:18:03.985Z,3.55
2023-03-11T00:20:34.275Z,3.53
2023-03-11T00:23:01.845Z,3.35
2023-03-11T00:25:31.704Z,2.63
2023-03-11T00:27:59.436Z,3.10
2023-03-11T00:30:27.148Z,3.00
2023-03-11T00:32:56.663Z,2.75
2023-03-11T00:35:26.326Z,2.20
2023-03-11T00:37:55.784Z,3.13
2023-03-11T00:40:25.154Z,2.38
2023-03-11T00:42:52.998Z,2.97
2023-03-11T00:45:21.372Z,2.47
2023-03-11T00:47:48.510Z,2.60
2023-03-11T00:50:19.357Z,2.10
2023-03-11T00:52:47.668Z,2.30
2023-03-11T00:55:17.716Z,2.70
2023-03-11T00:57:46.001Z,2.15
2023-03-11T01:00:19.224Z,2.17
2023-03-11T01:02:46.605Z,2.28
2023-03-11T01:05:14.750Z,2.25
2023-03-11T01:07:42.176Z,2.63
2023-03-11T01:10:10.559Z,2.72
2023-03-11T01:12:37.634Z,2.35
2023-03-11T01:15:06.044Z,2.33
2023-03-11T01:17:33.205Z,2.75
2023-03-11T01:20:00.238Z,2.00
2023-03-11T01:22:27.367Z,2.58
2023-03-11T01:24:55.160Z,2.83
2023-03-11T01:27:22.446Z,2.90
2023-03-11T01:29:49.489Z,2.72
2023-03-11T01:32:16.665Z,2.95
2023-03-11T01:34:43.837Z,3.60
2023-03-11T01:37:11.044Z,2.58
2023-03-11T01:39:38.233Z,2.40
2023-03-11T01:42:05.761Z,3.17
2023-03-11T01:44:33.650Z,2.83
2023-03-11T01:47:02.253Z,2.60
2023-03-11T01:49:32.911Z,2.63
2023-03-11T01:52:08.028Z,3.08
2023-03-11T01:54:42.158Z,2.83
2023-03-11T01:57:13.343Z,2.70
2023-03-11T01:59:47.407Z,3.88
2023-03-11T02:02:29.612Z,3.72
2023-03-11T02:04:57.506Z,2.70
2023-03-11T02:07:24.805Z,2.63
2023-03-11T02:09:52.324Z,3.05
2023-03-11T02:12:20.202Z,2.97
2023-03-11T02:14:51.582Z,3.42
2023-03-11T02:17:18.898Z,3.05
2023-03-11T02:19:45.987Z,2.88
2023-03-11T02:22:14.423Z,2.47
2023-03-11T02:24:48.757Z,2.38
2023-03-11T02:27:18.705Z,2.50
2023-03-11T02:29:50.254Z,2.60
2023-03-11T02:32:19.696Z,2.60
2023-03-11T02:34:47.269Z,2.70
2023-03-11T02:37:17.061Z,2.63
2023-03-11T02:39:53.165Z,3.08
2023-03-11T02:42:25.239Z,2.50
2023-03-11T02:45:10.905Z,3.42
2023-03-11T02:47:40.565Z,3.65
2023-03-11T02:50:13.831Z,2.83
2023-03-11T02:52:41.139Z,2.72
2023-03-11T02:55:10.229Z,3.20
2023-03-11T02:57:37.754Z,2.75
2023-03-11T03:00:13.432Z,2.85
2023-03-11T03:02:44.548Z,3.17
2023-03-11T03:05:11.984Z,2.78
2023-03-11T03:07:39.436Z,2.92
2023-03-11T03:10:07.521Z,2.80
2023-03-11T03:12:34.752Z,2.55
2023-03-11T03:15:01.900Z,2.90
2023-03-11T03:17:29.166Z,2.88
2023-03-11T03:19:56.357Z,2.72
2023-03-11T03:22:27.541Z,2.65
2023-03-11T03:24:55.331Z,3.25
2023-03-11T03:27:22.420Z,2.40
2023-03-11T03:29:49.577Z,2.03
2023-03-11T03:32:16.948Z,3.03
2023-03-11T03:34:44.026Z,3.00
2023-03-11T03:37:11.115Z,2.97
2023-03-11T03:39:38.410Z,3.50
2023-03-11T03:42:06.727Z,2.33
2023-03-11T03:44:39.561Z,3.20
2023-03-11T03:47:07.601Z,2.63
2023-03-11T03:49:35.075Z,2.80
2023-03-11T03:52:02.712Z,2.80
2023-03-11T03:54:32.223Z,2.60
2023-03-11T03:56:59.311Z,2.72
2023-03-11T03:59:26.406Z,2.90
2023-03-11T04:01:58.103Z,2.90
2023-03-11T04:04:27.056Z,2.65
2023-03-11T04:06:54.885Z,2.70
2023-03-11T04:09:22.092Z,2.15
2023-03-11T04:11:49.299Z,2.00
2023-03-11T04:14:18.149Z,2.35
2023-03-11T04:16:53.200Z,2.50
2023-03-11T04:19:20.601Z,2.97
2023-03-11T04:21:47.880Z,2.63
2023-03-11T04:24:15.278Z,2.25
2023-03-11T04:26:43.164Z,2.55
2023-03-11T04:29:14.386Z,2.80
2023-03-11T04:31:47.460Z,2.70
2023-03-11T04:34:14.862Z,2.97
2023-03-11T04:36:42.269Z,2.53
2023-03-11T04:39:12.418Z,2.95
2023-03-11T04:41:43.053Z,2.70
2023-03-11T04:44:14.018Z,2.75
2023-03-11T04:46:41.272Z,3.00
2023-03-11T04:49:10.458Z,3.50
2023-03-11T04:51:38.079Z,3.35
2023-03-11T04:54:06.549Z,2.83
2023-03-11T04:56:34.126Z,2.67
2023-03-11T04:59:01.583Z,3.75
2023-03-11T05:01:31.243Z,3.00
2023-03-11T05:04:01.792Z,3.63
2023-03-11T05:06:29.251Z,3.28
2023-03-11T05:08:56.547Z,2.63
2023-03-11T05:11:24.244Z,2.70
2023-03-11T05:13:51.962Z,2.60
2023-03-11T05:16:20.374Z,2.63
2023-03-11T05:18:47.658Z,3.33
2023-03-11T05:21:16.125Z,3.10
2023-03-11T05:23:45.464Z,3.20
2023-03-11T05:26:14.572Z,2.50
2023-03-11T05:28:43.855Z,3.35
2023-03-11T05:31:11.640Z,3.28
2023-03-11T05:33:39.412Z,2.78
2023-03-11T05:36:10.852Z,3.22
2023-03-11T05:38:41.555Z,2.08
2023-03-11T05:41:09.171Z,2.65
2023-03-11T05:43:36.909Z,3.55
2023-03-11T05:46:04.322Z,3.40
2023-03-11T05:48:32.232Z,2.60
2023-03-11T05:51:00.072Z,2.38
2023-03-11T05:53:27.340Z,2.15
2023-03-11T05:55:58.400Z,2.47
2023-03-11T05:58:28.401Z,3.03
2023-03-11T06:00:55.821Z,2.50
2023-03-11T06:03:23.356Z,2.80
2023-03-11T06:05:51.194Z,2.80
2023-03-11T06:08:20.487Z,2.50
2023-03-11T06:10:48.979Z,2.35
2023-03-11T06:13:17.969Z,2.78
2023-03-11T06:15:51.161Z,2.90
2023-03-11T06:18:19.956Z,3.17
2023-03-11T06:20:47.093Z,2.92
2023-03-11T06:23:14.229Z,2.67
2023-03-11T06:25:41.495Z,2.90
2023-03-11T06:28:10.028Z,3.30
2023-03-11T06:30:38.121Z,2.78
2023-03-11T06:33:09.839Z,2.80
2023-03-11T06:35:37.037Z,2.92
2023-03-11T06:38:04.151Z,2.95
2023-03-11T06:40:31.877Z,3.10
2023-03-11T06:42:59.185Z,3.65
2023-03-11T06:45:29.062Z,2.72
2023-03-11T06:47:56.900Z,3.63
2023-03-11T06:50:24.234Z,2.70
2023-03-11T06:52:53.677Z,3.35
2023-03-11T06:55:21.349Z,3.05
2023-03-11T06:57:48.529Z,2.65
2023-03-11T07:00:16.671Z,2.80
2023-03-11T07:02:49.507Z,2.90
2023-03-11T07:05:18.253Z,3.10
2023-03-11T07:07:46.851Z,3.00
2023-03-11T07:10:14.637Z,3.50
2023-03-11T07:12:41.957Z,4.22
2023-03-11T07:15:09.883Z,3.05
2023-03-11T07:17:37.156Z,3.55
2023-03-11T07:20:04.857Z,4.13
2023-03-11T07:22:31.948Z,3.65
2023-03-11T07:24:59.118Z,3.10
2023-03-11T07:27:28.394Z,3.55
2023-03-11T07:29:55.483Z,3.75
2023-03-11T07:32:22.611Z,3.42
2023-03-11T07:34:49.773Z,3.92
2023-03-11T07:37:16.895Z,3.47
2023-03-11T07:39:43.979Z,3.58
2023-03-11T07:42:11.131Z,3.13
2023-03-11T07:44:39.373Z,3.55
2023-03-11T07:47:06.685Z,2.85
2023-03-11T07:49:36.090Z,3.50
2023-03-11T07:52:03.220Z,3.85
2023-03-11T07:54:30.391Z,4.10
2023-03-11T07:56:57.452Z,3.78
2023-03-11T07:59:24.574Z,4.82
2023-03-11T08:01:51.867Z,3.28
2023-03-11T08:04:18.944Z,3.63
2023-03-11T08:06:47.807Z,2.83
2023-03-11T08:09:15.318Z,4.18
2023-03-11T08:11:42.626Z,4.63
2023-03-11T08:14:09.791Z,3.38
2023-03-11T08:16:39.353Z,3.47
2023-03-11T08:19:06.454Z,3.63
2023-03-11T08:21:33.651Z,4.00
2023-03-11T08:24:02.614Z,5.07
2023-03-11T08:26:31.277Z,4.18
2023-03-11T08:28:59.472Z,5.30
2023-03-11T08:31:29.868Z,6.07
2023-03-11T08:34:01.033Z,6.47
2023-03-11T08:36:28.677Z,6.88
2023-03-11T08:38:55.786Z,7.28
2023-03-11T08:41:22.992Z,7.13
2023-03-11T08:43:52.343Z,6.85
2023-03-11T08:46:27.391Z,7.45
2023-03-11T08:48:55.185Z,7.70
2023-03-11T08:51:23.710Z,7.30
2023-03-11T08:53:52.044Z,7.88
2023-03-11T08:56:19.689Z,7.53
2023-03-11T08:58:47.348Z,7.22
2023-03-11T09:01:14.512Z,6.80
2023-03-11T09:03:41.559Z,7.60
2023-03-11T09:06:13.877Z,5.53
2023-03-11T09:08:41.474Z,5.05
2023-03-11T09:11:09.454Z,5.20
2023-03-11T09:13:36.614Z,5.28
2023-03-11T09:16:06.033Z,4.20
2023-03-11T09:18:33.185Z,2.92
2023-03-11T09:21:01.294Z,1.88
2023-03-11T09:23:28.441Z,0.90
2023-03-11T09:25:55.523Z,1.00
2023-03-11T09:28:22.798Z,0.98
2023-03-11T09:30:49.919Z,1.50
2023-03-11T09:33:17.283Z,0.77
2023-03-11T09:35:45.014Z,0.70
2023-03-11T09:38:12.145Z,1.00
2023-03-11T09:41:04.462Z,0.70
2023-03-11T09:43:54.543Z,1.10
2023-03-11T10:17:34.161Z,0.50
2023-03-11T10:20:16.165Z,0.60
2023-03-11T10:23:01.821Z,0.80
2023-03-11T10:25:51.434Z,1.00
2023-03-11T10:28:21.048Z,0.63
2023-03-11T10:30:49.652Z,0.70
2023-03-11T10:33:29.496Z,0.60
2023-03-11T10:36:00.760Z,0.70
2023-03-11T10:38:32.865Z,1.00
2023-03-11T10:41:05.209Z,1.38
2023-03-11T10:43:39.073Z,1.00
2023-03-11T10:46:17.467Z,0.80
2023-03-11T10:48:44.612Z,0.80
2023-03-11T10:51:22.909Z,1.00
2023-03-11T10:53:59.824Z,1.17
2023-03-11T10:56:31.701Z,1.00
2023-03-11T10:59:00.164Z,0.93
2023-03-11T11:01:29.089Z,1.08
2023-03-11T11:04:01.032Z,1.38
2023-03-11T11:06:36.397Z,0.90
2023-03-11T11:09:26.855Z,1.15
2023-03-11T11:12:12.019Z,1.13
2023-03-11T11:14:51.325Z,1.05
2023-03-11T11:17:21.244Z,1.10
2023-03-11T11:19:49.682Z,1.00
2023-03-11T11:22:19.447Z,0.90
2023-03-11T11:24:48.756Z,0.90
2023-03-11T11:27:28.056Z,1.00
2023-03-11T11:30:21.679Z,1.55
2023-03-11T11:32:49.313Z,0.90
2023-03-11T11:35:17.835Z,1.35
2023-03-11T11:37:51.677Z,1.13
2023-03-11T11:40:26.482Z,0.90
2023-03-11T11:43:05.275Z,1.38
2023-03-11T11:45:41.383Z,1.10
2023-03-11T11:48:49.986Z,1.55
2023-03-11T11:51:43.112Z,1.20
2023-03-11T11:54:31.380Z,1.92
2023-03-11T11:56:58.885Z,1.50
2023-03-11T11:59:27.151Z,1.42
2023-03-11T12:02:11.893Z,1.70
2023-03-11T12:04:45.833Z,1.38
2023-03-11T12:07:24.998Z,1.50
2023-03-11T12:10:21.632Z,1.58
2023-03-11T12:13:22.438Z,1.52
2023-03-11T12:16:12.818Z,1.42
2023-03-11T12:19:01.860Z,1.02
2023-03-11T12:21:58.213Z,0.95
2023-03-11T12:24:42.885Z,1.20
2023-03-11T12:27:34.135Z,1.00
2023-03-11T12:30:16.922Z,1.50
2023-03-11T12:32:57.728Z,1.55
2023-03-11T12:35:28.042Z,1.33
2023-03-11T12:38:13.310Z,1.30
2023-03-11T12:40:42.832Z,1.35
2023-03-11T12:43:35.905Z,1.63
2023-03-11T12:46:05.218Z,1.30
2023-03-11T12:48:35.197Z,2.10
2023-03-11T12:51:02.749Z,2.50
2023-03-11T12:53:48.093Z,2.00
2023-03-11T12:56:34.817Z,2.13
2023-03-11T12:59:35.360Z,2.30
2023-03-11T13:02:20.667Z,2.80
2023-03-11T13:05:15.533Z,2.47
2023-03-11T13:07:52.798Z,2.88
2023-03-11T13:10:34.910Z,2.90
2023-03-11T13:13:02.734Z,3.38
2023-03-11T13:15:34.905Z,3.40
2023-03-11T13:18:12.730Z,3.70
2023-03-11T13:20:41.576Z,4.10
2023-03-11T13:23:14.748Z,4.20
2023-03-11T13:25:47.975Z,4.60
2023-03-11T13:28:47.404Z,4.50
2023-03-11T13:31:18.010Z,5.25
2023-03-11T13:34:00.096Z,4.82
2023-03-11T13:36:46.719Z,4.90
2023-03-11T13:39:46.010Z,5.50
2023-03-11T13:42:38.405Z,5.20
2023-03-11T13:45:08.338Z,6.47
2023-03-11T13:47:37.006Z,4.88
2023-03-11T13:50:10.425Z,4.70
2023-03-11T13:52:43.967Z,4.60
2023-03-11T13:55:31.270Z,4.88
2023-03-11T13:57:58.956Z,4.80
2023-03-11T14:00:29.365Z,4.97
2023-03-11T14:02:59.307Z,5.30
2023-03-11T14:05:35.157Z,5.30
2023-03-11T14:08:20.720Z,5.85
2023-03-11T14:10:58.337Z,5.32
2023-03-11T14:13:28.607Z,5.55
2023-03-11T14:16:10.144Z,5.65
2023-03-11T14:18:39.882Z,6.88
2023-03-11T14:21:16.616Z,5.95
2023-03-11T14:23:52.426Z,5.80
2023-03-11T14:26:31.540Z,6.20
2023-03-11T14:29:11.500Z,6.70
2023-03-11T14:31:41.612Z,6.22
2023-03-11T14:34:11.374Z,7.13
2023-03-11T14:36:57.265Z,6.90
2023-03-11T14:39:33.063Z,7.05
2023-03-11T14:42:20.335Z,6.88
2023-03-11T14:44:53.375Z,7.18
2023-03-11T14:47:54.331Z,7.32
2023-03-11T14:50:25.803Z,7.07
2023-03-11T14:53:02.463Z,7.03
2023-03-11T14:55:55.200Z,7.40
2023-03-11T14:58:34.717Z,6.78
2023-03-11T15:01:12.121Z,6.97
2023-03-11T15:03:50.805Z,7.15
2023-03-11T15:06:21.360Z,7.78
2023-03-11T15:08:58.579Z,6.80
2023-03-11T15:11:28.474Z,6.85
2023-03-11T15:14:17.238Z,6.90
2023-03-11T15:16:44.650Z,6.93
2023-03-11T15:19:29.674Z,6.53
2023-03-11T15:22:21.693Z,6.50
2023-03-11T15:24:57.939Z,6.03
2023-03-11T15:27:30.264Z,6.53
2023-03-11T15:29:58.596Z,5.95
2023-03-11T15:32:29.975Z,5.90
2023-03-11T15:35:10.742Z,6.22
2023-03-11T15:37:38.919Z,5.93
2023-03-11T15:40:44.930Z,6.10
2023-03-11T15:43:15.544Z,5.50
2023-03-11T15:45:44.252Z,5.97
2023-03-11T15:48:12.342Z,5.60
2023-03-11T15:50:54.806Z,6.10
2023-03-11T15:53:24.508Z,5.82
2023-03-11T15:55:53.744Z,5.63
2023-03-11T15:58:21.865Z,5.20
2023-03-11T16:00:56.148Z,4.90
2023-03-11T16:03:24.370Z,5.70
2023-03-11T16:05:51.478Z,5.10
2023-03-11T16:08:18.523Z,4.60
2023-03-11T16:10:45.580Z,4.68
2023-03-11T16:13:14.542Z,4.65
2023-03-11T16:15:42.527Z,4.63
2023-03-11T16:18:10.345Z,5.13
2023-03-11T16:20:50.061Z,4.88
2023-03-11T16:23:36.170Z,4.55
2023-03-11T16:26:11.087Z,4.88
2023-03-11T16:28:38.831Z,4.40
2023-03-11T16:31:08.035Z,4.82
2023-03-11T16:33:38.402Z,5.00
2023-03-11T16:36:06.142Z,5.10
2023-03-11T16:38:45.444Z,4.68
2023-03-11T16:41:12.696Z,4.97
2023-03-11T16:43:39.749Z,4.82
2023-03-11T16:46:06.897Z,5.20
2023-03-11T16:48:34.099Z,4.40
2023-03-11T16:51:01.652Z,4.82
2023-03-11T16:53:28.887Z,4.40
2023-03-11T16:55:56.410Z,4.18
2023-03-11T16:58:23.553Z,4.38
2023-03-11T17:00:50.654Z,4.68
2023-03-11T17:03:21.600Z,4.90
2023-03-11T17:05:49.421Z,4.18
2023-03-11T17:08:18.394Z,4.70
2023-03-11T17:10:46.404Z,4.22
2023-03-11T17:13:15.966Z,4.38
2023-03-11T17:15:45.903Z,4.40
2023-03-11T17:18:13.695Z,4.57
2023-03-11T17:20:43.629Z,4.55
2023-03-11T17:23:10.810Z,4.65
2023-03-11T17:25:41.706Z,4.47
2023-03-11T17:28:09.373Z,4.60
2023-03-11T17:30:37.629Z,4.40
2023-03-11T17:33:05.171Z,4.20
2023-03-11T17:35:32.369Z,4.43
2023-03-11T17:37:59.743Z,4.43
2023-03-11T17:40:29.385Z,4.40
2023-03-11T17:42:56.594Z,4.25
2023-03-11T17:45:23.650Z,4.40
2023-03-11T17:47:50.891Z,4.30
2023-03-11T17:50:18.340Z,4.20
2023-03-11T17:52:47.133Z,4.25
2023-03-11T17:55:14.260Z,4.78
2023-03-11T17:57:45.555Z,4.38
2023-03-11T18:00:15.104Z,4.45
2023-03-11T18:02:42.788Z,4.80
2023-03-11T18:05:10.502Z,4.57
2023-03-11T18:07:41.244Z,4.35
2023-03-11T18:10:09.705Z,4.70
2023-03-11T18:12:37.047Z,4.97
2023-03-11T18:15:07.421Z,4.75
2023-03-11T18:17:37.623Z,5.45
2023-03-11T18:20:05.646Z,5.43
2023-03-11T18:22:35.285Z,5.05
2023-03-11T18:25:02.627Z,5.13
2023-03-11T18:27:29.748Z,5.70
2023-03-11T18:29:56.868Z,5.30
2023-03-11T18:32:24.831Z,5.53
2023-03-11T18:34:52.344Z,5.72
2023-03-11T18:37:19.546Z,5.53
2023-03-11T18:39:46.621Z,5.57
2023-03-11T18:42:16.054Z,4.70
2023-03-11T18:44:43.183Z,4.32
2023-03-11T18:47:10.374Z,4.95
2023-03-11T18:49:37.456Z,4.32
2023-03-11T18:52:04.745Z,4.40
2023-03-11T18:54:32.256Z,4.55
2023-03-11T18:56:59.410Z,4.80
2023-03-11T18:59:27.929Z,4.60
2023-03-11T19:01:55.522Z,4.07
2023-03-11T19:04:22.870Z,4.57
2023-03-11T19:06:50.433Z,4.75
2023-03-11T19:09:21.062Z,4.88
2023-03-11T19:11:48.227Z,4.55
2023-03-11T19:14:15.953Z,4.38
2023-03-11T19:16:43.169Z,3.83
2023-03-11T19:19:11.930Z,3.97
2023-03-11T19:21:39.345Z,3.50
2023-03-11T19:24:06.703Z,3.78
2023-03-11T19:26:44.868Z,3.67
2023-03-11T19:29:14.301Z,3.60
2023-03-11T19:31:43.751Z,4.00
2023-03-11T19:34:11.338Z,3.60
2023-03-11T19:36:39.387Z,3.90
2023-03-11T19:39:07.030Z,3.70
2023-03-11T19:41:34.179Z,3.67
2023-03-11T19:44:01.637Z,3.80
2023-03-11T19:46:29.941Z,3.70
2023-03-11T19:48:57.184Z,3.70
2023-03-11T19:51:25.418Z,3.75
2023-03-11T19:53:55.572Z,3.28
2023-03-11T19:56:22.793Z,3.80
2023-03-11T19:58:50.117Z,3.30
2023-03-11T20:01:21.609Z,3.20
2023-03-11T20:03:48.763Z,3.22
2023-03-11T20:06:18.619Z,3.33
2023-03-11T20:08:45.898Z,3.80
2023-03-11T20:11:13.174Z,3.17
2023-03-11T20:13:42.786Z,3.40
2023-03-11T20:16:18.531Z,2.80
2023-03-11T20:18:50.367Z,2.30
2023-03-11T20:21:17.773Z,2.35
2023-03-11T20:23:44.875Z,3.00
2023-03-11T20:26:14.980Z,2.03
2023-03-11T20:28:42.718Z,2.15
2023-03-11T20:31:24.721Z,2.30
2023-03-11T20:33:53.457Z,2.40
2023-03-11T20:36:27.050Z,2.50
2023-03-11T20:38:55.429Z,2.28
2023-03-11T20:41:24.036Z,2.60
2023-03-11T20:43:56.759Z,2.33
2023-03-11T20:46:24.076Z,2.55
2023-03-11T20:48:51.368Z,2.55
2023-03-11T20:51:20.751Z,2.60
2023-03-11T20:53:49.164Z,2.85
2023-03-11T20:56:20.264Z,2.65
2023-03-11T20:58:51.054Z,2.70
2023-03-11T21:01:28.008Z,2.70
2023-03-11T21:03:58.450Z,2.70
2023-03-11T21:06:29.209Z,2.92
2023-03-11T21:08:59.143Z,3.25
2023-03-11T21:11:26.929Z,2.97
2023-03-11T21:13:54.904Z,2.80
2023-03-11T21:16:23.029Z,3.22
2023-03-11T21:18:50.460Z,2.67
2023-03-11T21:21:18.411Z,2.90
2023-03-11T21:23:48.226Z,2.70
2023-03-11T21:26:17.037Z,2.95
2023-03-11T21:28:47.069Z,2.67
2023-03-11T21:31:18.557Z,2.80
2023-03-11T21:33:46.114Z,2.90
2023-03-11T21:36:15.845Z,2.50
2023-03-11T21:38:43.142Z,2.78
2023-03-11T21:41:13.321Z,2.90
2023-03-11T21:43:44.614Z,2.50
2023-03-11T21:46:15.476Z,2.70
2023-03-11T21:48:43.416Z,3.25
2023-03-11T21:51:10.839Z,2.75
2023-03-11T21:53:38.179Z,2.83
2023-03-11T21:56:06.268Z,3.05
2023-03-11T21:58:33.880Z,2.80
2023-03-11T22:01:01.474Z,2.75
2023-03-11T22:03:29.107Z,2.95
2023-03-11T22:06:00.381Z,2.75
2023-03-11T22:08:27.929Z,3.20
2023-03-11T22:10:55.414Z,2.63
2023-03-11T22:13:23.961Z,2.70
2023-03-11T22:15:51.645Z,2.60
2023-03-11T22:18:18.932Z,2.65
2023-03-11T22:20:46.129Z,2.70
2023-03-11T22:23:13.314Z,3.10
2023-03-11T22:25:40.498Z,2.60
2023-03-11T22:28:10.488Z,2.47
2023-03-11T22:30:37.677Z,2.55
2023-03-11T22:33:04.803Z,2.53
2023-03-11T22:35:31.973Z,3.20
2023-03-11T22:37:59.154Z,2.47
2023-03-11T22:40:27.055Z,2.90
2023-03-11T22:42:54.198Z,2.88
2023-03-11T22:45:22.477Z,2.80
2023-03-11T22:47:50.540Z,2.78
2023-03-11T22:50:19.115Z,2.63
2023-03-11T22:52:46.274Z,2.78
2023-03-11T22:55:13.320Z,2.80
2023-03-11T22:57:40.441Z,2.47
2023-03-11T23:00:17.224Z,2.60
2023-03-11T23:02:49.458Z,2.80
2023-03-11T23:05:16.668Z,2.70
2023-03-11T23:07:43.768Z,2.33
2023-03-11T23:10:12.965Z,2.40
2023-03-11T23:12:40.505Z,2.38
2023-03-11T23:15:11.073Z,3.05
2023-03-11T23:17:38.697Z,3.10
2023-03-11T23:20:07.955Z,2.42
2023-03-11T23:22:37.170Z,2.35
2023-03-11T23:25:06.419Z,2.78
2023-03-11T23:27:33.536Z,2.75
2023-03-11T23:30:00.754Z,2.50
2023-03-11T23:32:28.514Z,2.38
2023-03-11T23:34:55.668Z,3.05
2023-03-11T23:37:23.827Z,2.50
2023-03-11T23:39:50.926Z,2.42
2023-03-11T23:42:25.498Z,2.33
2023-03-11T23:44:53.397Z,2.13
2023-03-11T23:47:20.661Z,2.45
2023-03-11T23:49:47.778Z,2.28
2023-03-11T23:52:15.123Z,2.63
2023-03-11T23:54:42.396Z,2.38
2023-03-11T23:57:09.447Z,2.00
2023-03-11T23:59:36.554Z,2.15
